sensor_id;sensor_type;location;lat;lon;timestamp;temperature;humidity
20862;DHT22;10591;52.532;13.348;2023-03-01T00:01:19;-0.64;79.03
20862;DHT22;10591;52.532;13.348;2023-03-01T00:03:51;-0.69;79.11
20862;DHT22;10591;52.532;13.348;2023-03-01T00:06:23;-0.72;79.25
20862;DHT22;10591;52.532;13.348;2023-03-01T00:08:55;-0.72;79.22
20862;DHT22;10591;52.532;13.348;2023-03-01T00:11:28;-0.63;78.61
20862;DHT22;10591;52.532;13.348;2023-03-01T00:14:00;-0.60;78.36
20862;DHT22;10591;52.532;13.348;2023-03-01T00:16:35;-0.68;78.88
20862;DHT22;10591;52.532;13.348;2023-03-01T00:19:11;-0.80;79.28
20862;DHT22;10591;52.532;13.348;2023-03-01T00:21:42;-0.85;79.61
20862;DHT22;10591;52.532;13.348;2023-03-01T00:24:13;-0.84;79.71
20862;DHT22;10591;52.532;13.348;2023-03-01T00:26:45;-0.87;79.91
20862;DHT22;10591;52.532;13.348;2023-03-01T00:29:18;-0.86;80.00
20862;DHT22;10591;52.532;13.348;2023-03-01T00:31:49;-0.92;80.01
20862;DHT22;10591;52.532;13.348;2023-03-01T00:34:22;-0.94;80.10
20862;DHT22;10591;52.532;13.348;2023-03-01T00:36:52;-0.99;80.39
20862;DHT22;10591;52.532;13.348;2023-03-01T00:39:25;-0.94;79.92
20862;DHT22;10591;52.532;13.348;2023-03-01T00:41:55;-0.98;79.91
20862;DHT22;10591;52.532;13.348;2023-03-01T00:44:30;-0.89;79.90
20862;DHT22;10591;52.532;13.348;2023-03-01T00:47:02;-0.90;79.67
20862;DHT22;10591;52.532;13.348;2023-03-01T00:49:32;-0.96;80.14
20862;DHT22;10591;52.532;13.348;2023-03-01T00:52:03;-0.91;79.16
20862;DHT22;10591;52.532;13.348;2023-03-01T00:54:34;-0.86;78.98
20862;DHT22;10591;52.532;13.348;2023-03-01T00:57:04;-1.10;79.67
20862;DHT22;10591;52.532;13.348;2023-03-01T00:59:35;-1.16;79.98
20862;DHT22;10591;52.532;13.348;2023-03-01T01:02:07;-1.20;80.25
20862;DHT22;10591;52.532;13.348;2023-03-01T01:04:37;-1.18;80.07
20862;DHT22;10591;52.532;13.348;2023-03-01T01:07:09;-1.22;80.43
20862;DHT22;10591;52.532;13.348;2023-03-01T01:09:40;-1.30;80.41
20862;DHT22;10591;52.532;13.348;2023-03-01T01:12:12;-1.34;80.67
20862;DHT22;10591;52.532;13.348;2023-03-01T01:14:44;-1.37;80.58
20862;DHT22;10591;52.532;13.348;2023-03-01T01:17:15;-1.26;80.37
20862;DHT22;10591;52.532;13.348;2023-03-01T01:19:46;-1.20;80.18
20862;DHT22;10591;52.532;13.348;2023-03-01T01:22:16;-1.20;80.39
20862;DHT22;10591;52.532;13.348;2023-03-01T01:24:47;-1.20;79.97
20862;DHT22;10591;52.532;13.348;2023-03-01T01:27:18;-1.25;80.10
20862;DHT22;10591;52.532;13.348;2023-03-01T01:29:50;-1.28;80.21
20862;DHT22;10591;52.532;13.348;2023-03-01T01:32:20;-1.28;80.11
20862;DHT22;10591;52.532;13.348;2023-03-01T01:34:53;-1.30;80.36
20862;DHT22;10591;52.532;13.348;2023-03-01T01:37:24;-1.32;80.13
20862;DHT22;10591;52.532;13.348;2023-03-01T01:39:58;-1.36;80.44
20862;DHT22;10591;52.532;13.348;2023-03-01T01:42:29;-1.27;80.28
20862;DHT22;10591;52.532;13.348;2023-03-01T01:48:09;-1.04;79.20
20862;DHT22;10591;52.532;13.348;2023-03-01T01:50:34;-1.08;79.21
20862;DHT22;10591;52.532;13.348;2023-03-01T01:53:12;-1.17;79.40
20862;DHT22;10591;52.532;13.348;2023-03-01T01:55:47;-1.06;79.45
20862;DHT22;10591;52.532;13.348;2023-03-01T01:58:20;-1.24;79.63
20862;DHT22;10591;52.532;13.348;2023-03-01T02:00:52;-1.28;80.14
20862;DHT22;10591;52.532;13.348;2023-03-01T02:03:26;-1.45;80.42
20862;DHT22;10591;52.532;13.348;2023-03-01T02:06:06;-1.50;80.84
20862;DHT22;10591;52.532;13.348;2023-03-01T02:08:38;-1.58;81.26
20862;DHT22;10591;52.532;13.348;2023-03-01T02:11:12;-1.62;81.34
20862;DHT22;10591;52.532;13.348;2023-03-01T02:13:46;-1.68;81.46
20862;DHT22;10591;52.532;13.348;2023-03-01T02:16:18;-1.73;81.65
20862;DHT22;10591;52.532;13.348;2023-03-01T02:18:50;-1.75;81.76
20862;DHT22;10591;52.532;13.348;2023-03-01T02:21:42;-1.56;81.96
20862;DHT22;10591;52.532;13.348;2023-03-01T02:24:11;-1.68;82.02
20862;DHT22;10591;52.532;13.348;2023-03-01T02:26:48;-1.67;82.09
20862;DHT22;10591;52.532;13.348;2023-03-01T02:29:19;-1.56;81.89
20862;DHT22;10591;52.532;13.348;2023-03-01T02:31:55;-1.56;81.89
20862;DHT22;10591;52.532;13.348;2023-03-01T02:34:28;-1.56;81.76
20862;DHT22;10591;52.532;13.348;2023-03-01T02:37:07;-1.52;81.47
20862;DHT22;10591;52.532;13.348;2023-03-01T02:39:40;-1.52;81.50
20862;DHT22;10591;52.532;13.348;2023-03-01T02:42:14;-1.54;81.54
20862;DHT22;10591;52.532;13.348;2023-03-01T02:44:45;-1.56;81.60
20862;DHT22;10591;52.532;13.348;2023-03-01T02:47:16;-1.52;81.41
20862;DHT22;10591;52.532;13.348;2023-03-01T02:49:46;-1.55;81.42
20862;DHT22;10591;52.532;13.348;2023-03-01T02:55:21;-1.62;81.65
20862;DHT22;10591;52.532;13.348;2023-03-01T02:57:54;-1.60;81.64
20862;DHT22;10591;52.532;13.348;2023-03-01T03:00:30;-1.54;81.58
20862;DHT22;10591;52.532;13.348;2023-03-01T03:03:00;-1.58;81.57
20862;DHT22;10591;52.532;13.348;2023-03-01T03:05:31;-1.60;81.74
20862;DHT22;10591;52.532;13.348;2023-03-01T03:08:03;-1.62;81.63
20862;DHT22;10591;52.532;13.348;2023-03-01T03:10:36;-1.58;81.55
20862;DHT22;10591;52.532;13.348;2023-03-01T03:13:10;-1.67;81.94
20862;DHT22;10591;52.532;13.348;2023-03-01T03:15:43;-1.62;81.79
20862;DHT22;10591;52.532;13.348;2023-03-01T03:18:15;-1.66;81.89
20862;DHT22;10591;52.532;13.348;2023-03-01T03:20:46;-1.72;81.95
20862;DHT22;10591;52.532;13.348;2023-03-01T03:23:17;-1.71;81.86
20862;DHT22;10591;52.532;13.348;2023-03-01T03:25:51;-1.76;82.02
20862;DHT22;10591;52.532;13.348;2023-03-01T03:28:21;-1.77;82.07
20862;DHT22;10591;52.532;13.348;2023-03-01T03:30:52;-1.78;82.25
20862;DHT22;10591;52.532;13.348;2023-03-01T03:33:23;-1.78;82.45
20862;DHT22;10591;52.532;13.348;2023-03-01T03:35:53;-1.84;82.46
20862;DHT22;10591;52.532;13.348;2023-03-01T03:38:24;-1.84;82.50
20862;DHT22;10591;52.532;13.348;2023-03-01T03:41:06;-1.84;82.46
20862;DHT22;10591;52.532;13.348;2023-03-01T03:43:34;-1.84;82.57
20862;DHT22;10591;52.532;13.348;2023-03-01T03:46:05;-1.86;82.67
20862;DHT22;10591;52.532;13.348;2023-03-01T03:48:42;-1.82;82.73
20862;DHT22;10591;52.532;13.348;2023-03-01T03:51:12;-1.86;82.97
20862;DHT22;10591;52.532;13.348;2023-03-01T03:53:45;-1.88;83.10
20862;DHT22;10591;52.532;13.348;2023-03-01T03:56:15;-1.88;83.33
20862;DHT22;10591;52.532;13.348;2023-03-01T03:58:46;-1.86;83.52
20862;DHT22;10591;52.532;13.348;2023-03-01T04:01:16;-1.78;83.38
20862;DHT22;10591;52.532;13.348;2023-03-01T04:03:47;-1.85;83.30
20862;DHT22;10591;52.532;13.348;2023-03-01T04:06:18;-1.87;83.34
20862;DHT22;10591;52.532;13.348;2023-03-01T04:08:50;-1.94;83.85
20862;DHT22;10591;52.532;13.348;2023-03-01T04:11:22;-1.96;83.93
20862;DHT22;10591;52.532;13.348;2023-03-01T04:13:58;-1.84;83.94
20862;DHT22;10591;52.532;13.348;2023-03-01T04:16:29;-1.90;83.90
20862;DHT22;10591;52.532;13.348;2023-03-01T04:19:01;-1.96;84.07
20862;DHT22;10591;52.532;13.348;2023-03-01T04:21:32;-1.98;84.19
20862;DHT22;10591;52.532;13.348;2023-03-01T04:24:04;-2.01;84.06
20862;DHT22;10591;52.532;13.348;2023-03-01T04:26:36;-1.92;84.20
20862;DHT22;10591;52.532;13.348;2023-03-01T04:29:06;-1.86;83.74
20862;DHT22;10591;52.532;13.348;2023-03-01T04:31:37;-2.00;83.92
20862;DHT22;10591;52.532;13.348;2023-03-01T04:34:07;-1.84;83.70
20862;DHT22;10591;52.532;13.348;2023-03-01T04:36:38;-1.86;83.70
20862;DHT22;10591;52.532;13.348;2023-03-01T04:39:09;-1.82;83.22
20862;DHT22;10591;52.532;13.348;2023-03-01T04:41:42;-1.95;83.58
20862;DHT22;10591;52.532;13.348;2023-03-01T04:44:17;-2.00;83.79
20862;DHT22;10591;52.532;13.348;2023-03-01T04:46:49;-2.10;83.97
20862;DHT22;10591;52.532;13.348;2023-03-01T04:49:20;-2.14;84.26
20862;DHT22;10591;52.532;13.348;2023-03-01T04:51:51;-2.14;84.35
20862;DHT22;10591;52.532;13.348;2023-03-01T04:54:21;-2.13;84.42
20862;DHT22;10591;52.532;13.348;2023-03-01T04:56:53;-2.17;84.50
20862;DHT22;10591;52.532;13.348;2023-03-01T04:59:23;-2.08;84.43
20862;DHT22;10591;52.532;13.348;2023-03-01T05:01:55;-1.94;84.03
20862;DHT22;10591;52.532;13.348;2023-03-01T05:04:28;-1.84;83.76
20862;DHT22;10591;52.532;13.348;2023-03-01T05:06:59;-1.75;82.83
20862;DHT22;10591;52.532;13.348;2023-03-01T05:09:30;-1.98;82.87
20862;DHT22;10591;52.532;13.348;2023-03-01T05:12:01;-1.78;82.60
20862;DHT22;10591;52.532;13.348;2023-03-01T05:14:32;-1.94;82.30
20862;DHT22;10591;52.532;13.348;2023-03-01T05:17:03;-1.96;82.38
20862;DHT22;10591;52.532;13.348;2023-03-01T05:19:34;-1.82;81.92
20862;DHT22;10591;52.532;13.348;2023-03-01T05:22:05;-2.05;82.36
20862;DHT22;10591;52.532;13.348;2023-03-01T05:24:35;-2.04;82.49
20862;DHT22;10591;52.532;13.348;2023-03-01T05:27:09;-2.09;82.44
20862;DHT22;10591;52.532;13.348;2023-03-01T05:29:39;-1.96;82.43
20862;DHT22;10591;52.532;13.348;2023-03-01T05:32:10;-2.20;82.81
20862;DHT22;10591;52.532;13.348;2023-03-01T05:34:43;-2.28;83.26
20862;DHT22;10591;52.532;13.348;2023-03-01T05:37:15;-2.26;83.24
20862;DHT22;10591;52.532;13.348;2023-03-01T05:39:46;-2.26;83.42
20862;DHT22;10591;52.532;13.348;2023-03-01T05:42:19;-2.30;83.54
20862;DHT22;10591;52.532;13.348;2023-03-01T05:44:50;-2.30;83.72
20862;DHT22;10591;52.532;13.348;2023-03-01T05:47:24;-2.24;83.64
20862;DHT22;10591;52.532;13.348;2023-03-01T05:49:54;-2.20;83.52
20862;DHT22;10591;52.532;13.348;2023-03-01T05:52:25;-2.22;83.56
20862;DHT22;10591;52.532;13.348;2023-03-01T05:54:56;-2.16;83.47
20862;DHT22;10591;52.532;13.348;2023-03-01T05:57:29;-2.28;83.68
20862;DHT22;10591;52.532;13.348;2023-03-01T06:00:00;-2.24;83.78
20862;DHT22;10591;52.532;13.348;2023-03-01T06:02:31;-2.22;83.56
20862;DHT22;10591;52.532;13.348;2023-03-01T06:05:01;-2.14;83.31
20862;DHT22;10591;52.532;13.348;2023-03-01T06:07:34;-2.13;83.19
20862;DHT22;10591;52.532;13.348;2023-03-01T06:10:06;-2.02;82.99
20862;DHT22;10591;52.532;13.348;2023-03-01T06:12:38;-1.88;82.62
20862;DHT22;10591;52.532;13.348;2023-03-01T06:15:13;-1.94;82.34
20862;DHT22;10591;52.532;13.348;2023-03-01T06:17:45;-1.84;82.05
20862;DHT22;10591;52.532;13.348;2023-03-01T06:20:19;-1.80;81.84
20862;DHT22;10591;52.532;13.348;2023-03-01T06:22:50;-1.81;81.76
20862;DHT22;10591;52.532;13.348;2023-03-01T06:25:22;-1.63;81.83
20862;DHT22;10591;52.532;13.348;2023-03-01T06:27:54;-1.70;81.86
20862;DHT22;10591;52.532;13.348;2023-03-01T06:30:27;-1.72;82.06
20862;DHT22;10591;52.532;13.348;2023-03-01T06:32:59;-1.52;82.00
20862;DHT22;10591;52.532;13.348;2023-03-01T06:35:32;-1.58;82.12
20862;DHT22;10591;52.532;13.348;2023-03-01T06:38:04;-1.46;81.82
20862;DHT22;10591;52.532;13.348;2023-03-01T06:40:34;-1.54;82.15
20862;DHT22;10591;52.532;13.348;2023-03-01T06:43:05;-1.45;82.23
20862;DHT22;10591;52.532;13.348;2023-03-01T06:45:37;-1.43;82.37
20862;DHT22;10591;52.532;13.348;2023-03-01T06:48:08;-1.32;82.33
20862;DHT22;10591;52.532;13.348;2023-03-01T06:50:40;-1.42;82.57
20862;DHT22;10591;52.532;13.348;2023-03-01T06:53:13;-1.46;82.99
20862;DHT22;10591;52.532;13.348;2023-03-01T06:55:45;-1.35;82.82
20862;DHT22;10591;52.532;13.348;2023-03-01T06:58:15;-1.20;82.56
20862;DHT22;10591;52.532;13.348;2023-03-01T07:00:48;-1.14;82.54
20862;DHT22;10591;52.532;13.348;2023-03-01T07:03:19;-0.89;81.83
20862;DHT22;10591;52.532;13.348;2023-03-01T07:05:52;-0.76;81.31
20862;DHT22;10591;52.532;13.348;2023-03-01T07:08:23;-0.74;81.08
20862;DHT22;10591;52.532;13.348;2023-03-01T07:10:58;-0.70;80.45
20862;DHT22;10591;52.532;13.348;2023-03-01T07:13:30;-0.65;80.42
20862;DHT22;10591;52.532;13.348;2023-03-01T07:16:02;-0.63;80.42
20862;DHT22;10591;52.532;13.348;2023-03-01T07:18:32;-0.41;80.24
20862;DHT22;10591;52.532;13.348;2023-03-01T07:21:12;-0.46;79.79
20862;DHT22;10591;52.532;13.348;2023-03-01T07:23:43;-0.28;79.46
20862;DHT22;10591;52.532;13.348;2023-03-01T07:26:14;-0.16;79.28
20862;DHT22;10591;52.532;13.348;2023-03-01T07:28:44;-0.10;78.40
20862;DHT22;10591;52.532;13.348;2023-03-01T07:31:16;-0.24;78.25
20862;DHT22;10591;52.532;13.348;2023-03-01T07:33:46;-0.08;78.00
20862;DHT22;10591;52.532;13.348;2023-03-01T07:36:17;0.10;77.88
20862;DHT22;10591;52.532;13.348;2023-03-01T07:38:47;0.13;77.02
20862;DHT22;10591;52.532;13.348;2023-03-01T07:41:19;0.38;77.12
20862;DHT22;10591;52.532;13.348;2023-03-01T07:43:55;0.43;76.81
20862;DHT22;10591;52.532;13.348;2023-03-01T07:46:25;0.56;76.30
20862;DHT22;10591;52.532;13.348;2023-03-01T07:48:56;0.52;75.57
20862;DHT22;10591;52.532;13.348;2023-03-01T07:51:27;0.77;74.59
20862;DHT22;10591;52.532;13.348;2023-03-01T07:53:58;0.80;72.87
20862;DHT22;10591;52.532;13.348;2023-03-01T07:56:29;1.03;72.46
20862;DHT22;10591;52.532;13.348;2023-03-01T07:59:00;1.19;72.60
20862;DHT22;10591;52.532;13.348;2023-03-01T08:01:30;1.34;72.49
20862;DHT22;10591;52.532;13.348;2023-03-01T08:04:01;1.54;70.74
20862;DHT22;10591;52.532;13.348;2023-03-01T08:06:34;1.65;69.25
20862;DHT22;10591;52.532;13.348;2023-03-01T08:09:05;1.56;68.45
20862;DHT22;10591;52.532;13.348;2023-03-01T08:11:36;1.60;67.30
20862;DHT22;10591;52.532;13.348;2023-03-01T08:14:07;1.84;66.63
20862;DHT22;10591;52.532;13.348;2023-03-01T08:16:48;1.82;67.11
20862;DHT22;10591;52.532;13.348;2023-03-01T08:19:19;1.90;66.65
20862;DHT22;10591;52.532;13.348;2023-03-01T08:21:50;2.18;65.91
20862;DHT22;10591;52.532;13.348;2023-03-01T08:24:21;2.29;64.96
20862;DHT22;10591;52.532;13.348;2023-03-01T08:26:53;2.47;64.85
20862;DHT22;10591;52.532;13.348;2023-03-01T08:29:24;2.48;65.02
20862;DHT22;10591;52.532;13.348;2023-03-01T08:31:57;2.82;64.82
20862;DHT22;10591;52.532;13.348;2023-03-01T08:34:28;2.90;64.10
20862;DHT22;10591;52.532;13.348;2023-03-01T08:37:00;2.90;63.53
20862;DHT22;10591;52.532;13.348;2023-03-01T08:39:31;3.18;62.86
20862;DHT22;10591;52.532;13.348;2023-03-01T08:42:03;3.00;61.87
20862;DHT22;10591;52.532;13.348;2023-03-01T08:44:34;3.30;61.78
20862;DHT22;10591;52.532;13.348;2023-03-01T08:47:04;3.29;61.20
20862;DHT22;10591;52.532;13.348;2023-03-01T08:49:35;3.31;61.17
20862;DHT22;10591;52.532;13.348;2023-03-01T08:52:06;3.67;60.65
20862;DHT22;10591;52.532;13.348;2023-03-01T08:54:36;3.82;59.86
20862;DHT22;10591;52.532;13.348;2023-03-01T08:57:07;3.73;60.27
20862;DHT22;10591;52.532;13.348;2023-03-01T08:59:39;3.99;59.10
20862;DHT22;10591;52.532;13.348;2023-03-01T09:02:14;3.84;59.50
20862;DHT22;10591;52.532;13.348;2023-03-01T09:04:44;3.72;59.57
20862;DHT22;10591;52.532;13.348;2023-03-01T09:07:15;3.88;59.45
20862;DHT22;10591;52.532;13.348;2023-03-01T09:09:47;4.06;59.34
20862;DHT22;10591;52.532;13.348;2023-03-01T09:12:18;3.98;58.90
20862;DHT22;10591;52.532;13.348;2023-03-01T09:14:49;3.91;58.78
20862;DHT22;10591;52.532;13.348;2023-03-01T09:17:19;4.17;58.23
20862;DHT22;10591;52.532;13.348;2023-03-01T09:19:54;4.34;58.54
20862;DHT22;10591;52.532;13.348;2023-03-01T09:22:24;4.50;57.76
20862;DHT22;10591;52.532;13.348;2023-03-01T09:24:54;4.32;57.88
20862;DHT22;10591;52.532;13.348;2023-03-01T09:27:25;4.63;57.59
20862;DHT22;10591;52.532;13.348;2023-03-01T09:29:56;4.70;56.88
20862;DHT22;10591;52.532;13.348;2023-03-01T09:32:30;4.72;56.65
20862;DHT22;10591;52.532;13.348;2023-03-01T09:35:01;4.74;57.12
20862;DHT22;10591;52.532;13.348;2023-03-01T09:37:36;4.89;56.65
20862;DHT22;10591;52.532;13.348;2023-03-01T09:40:14;5.03;56.00
20862;DHT22;10591;52.532;13.348;2023-03-01T09:43:26;5.16;56.25
20862;DHT22;10591;52.532;13.348;2023-03-01T09:45:31;4.90;56.57
20862;DHT22;10591;52.532;13.348;2023-03-01T09:48:02;5.36;56.05
20862;DHT22;10591;52.532;13.348;2023-03-01T09:50:40;4.84;56.58
20862;DHT22;10591;52.532;13.348;2023-03-01T09:53:20;4.84;56.61
20862;DHT22;10591;52.532;13.348;2023-03-01T09:56:04;5.02;56.64
20862;DHT22;10591;52.532;13.348;2023-03-01T10:02:14;4.92;55.26
20862;DHT22;10591;52.532;13.348;2023-03-01T10:04:27;4.98;55.44
20862;DHT22;10591;52.532;13.348;2023-03-01T10:07:17;5.42;54.73
20862;DHT22;10591;52.532;13.348;2023-03-01T10:09:47;5.56;54.16
20862;DHT22;10591;52.532;13.348;2023-03-01T10:12:22;5.92;53.89
20862;DHT22;10591;52.532;13.348;2023-03-01T10:15:03;5.81;53.05
20862;DHT22;10591;52.532;13.348;2023-03-01T10:18:00;5.74;52.41
20862;DHT22;10591;52.532;13.348;2023-03-01T10:20:28;5.62;52.34
20862;DHT22;10591;52.532;13.348;2023-03-01T10:22:52;5.92;51.18
20862;DHT22;10591;52.532;13.348;2023-03-01T10:30:52;5.82;50.66
20862;DHT22;10591;52.532;13.348;2023-03-01T10:33:29;5.70;50.46
20862;DHT22;10591;52.532;13.348;2023-03-01T10:35:59;5.88;50.16
20862;DHT22;10591;52.532;13.348;2023-03-01T10:38:50;6.18;49.53
20862;DHT22;10591;52.532;13.348;2023-03-01T10:41:22;6.32;49.09
20862;DHT22;10591;52.532;13.348;2023-03-01T10:43:56;6.08;48.94
20862;DHT22;10591;52.532;13.348;2023-03-01T10:46:36;6.12;48.70
20862;DHT22;10591;52.532;13.348;2023-03-01T10:49:16;6.16;47.70
20862;DHT22;10591;52.532;13.348;2023-03-01T10:51:49;6.17;47.45
20862;DHT22;10591;52.532;13.348;2023-03-01T10:54:28;6.42;46.87
20862;DHT22;10591;52.532;13.348;2023-03-01T10:57:04;6.54;46.61
20862;DHT22;10591;52.532;13.348;2023-03-01T10:59:37;6.22;47.31
20862;DHT22;10591;52.532;13.348;2023-03-01T11:02:28;6.29;46.73
20862;DHT22;10591;52.532;13.348;2023-03-01T11:07:46;6.06;46.83
20862;DHT22;10591;52.532;13.348;2023-03-01T11:10:11;6.08;46.27
20862;DHT22;10591;52.532;13.348;2023-03-01T11:12:42;6.16;45.97
20862;DHT22;10591;52.532;13.348;2023-03-01T11:15:27;6.46;44.02
20862;DHT22;10591;52.532;13.348;2023-03-01T11:18:00;6.55;41.88
20862;DHT22;10591;52.532;13.348;2023-03-01T11:20:36;6.77;41.56
20862;DHT22;10591;52.532;13.348;2023-03-01T11:23:13;6.96;42.31
20862;DHT22;10591;52.532;13.348;2023-03-01T11:25:54;6.83;41.78
20862;DHT22;10591;52.532;13.348;2023-03-01T11:28:21;6.56;42.96
20862;DHT22;10591;52.532;13.348;2023-03-01T11:31:09;7.00;42.88
20862;DHT22;10591;52.532;13.348;2023-03-01T11:44:35;7.36;43.30
20862;DHT22;10591;52.532;13.348;2023-03-01T11:53:05;7.50;40.52
20862;DHT22;10591;52.532;13.348;2023-03-01T11:56:03;7.54;40.49
20862;DHT22;10591;52.532;13.348;2023-03-01T11:58:41;7.66;39.80
20862;DHT22;10591;52.532;13.348;2023-03-01T12:09:46;7.70;40.22
20862;DHT22;10591;52.532;13.348;2023-03-01T12:12:48;7.60;39.57
20862;DHT22;10591;52.532;13.348;2023-03-01T12:21:14;7.64;40.22
20862;DHT22;10591;52.532;13.348;2023-03-01T12:26:35;7.60;40.04
20862;DHT22;10591;52.532;13.348;2023-03-01T12:29:26;7.61;39.76
20862;DHT22;10591;52.532;13.348;2023-03-01T12:41:20;7.85;39.04
20862;DHT22;10591;52.532;13.348;2023-03-01T12:49:35;8.26;36.61
20862;DHT22;10591;52.532;13.348;2023-03-01T12:52:24;8.42;37.05
20862;DHT22;10591;52.532;13.348;2023-03-01T12:54:58;7.88;37.58
20862;DHT22;10591;52.532;13.348;2023-03-01T12:57:34;7.76;37.61
20862;DHT22;10591;52.532;13.348;2023-03-01T13:02:55;8.12;37.81
20862;DHT22;10591;52.532;13.348;2023-03-01T13:08:20;7.97;37.85
20862;DHT22;10591;52.532;13.348;2023-03-01T13:11:00;8.08;38.06
20862;DHT22;10591;52.532;13.348;2023-03-01T13:13:28;8.08;37.86
20862;DHT22;10591;52.532;13.348;2023-03-01T13:16:21;8.15;37.42
20862;DHT22;10591;52.532;13.348;2023-03-01T13:19:06;8.02;36.85
20862;DHT22;10591;52.532;13.348;2023-03-01T13:21:30;8.02;36.78
20862;DHT22;10591;52.532;13.348;2023-03-01T13:24:01;8.14;36.89
20862;DHT22;10591;52.532;13.348;2023-03-01T13:26:41;8.10;37.58
20862;DHT22;10591;52.532;13.348;2023-03-01T13:29:11;8.28;36.94
20862;DHT22;10591;52.532;13.348;2023-03-01T13:34:45;8.19;37.29
20862;DHT22;10591;52.532;13.348;2023-03-01T13:37:26;8.08;37.25
20862;DHT22;10591;52.532;13.348;2023-03-01T13:40:04;7.97;37.53
20862;DHT22;10591;52.532;13.348;2023-03-01T13:42:38;7.86;37.68
20862;DHT22;10591;52.532;13.348;2023-03-01T13:45:37;7.86;37.88
20862;DHT22;10591;52.532;13.348;2023-03-01T13:48:45;7.98;37.89
20862;DHT22;10591;52.532;13.348;2023-03-01T13:51:02;8.18;38.07
20862;DHT22;10591;52.532;13.348;2023-03-01T13:53:39;8.09;38.23
20862;DHT22;10591;52.532;13.348;2023-03-01T13:56:21;7.94;37.85
20862;DHT22;10591;52.532;13.348;2023-03-01T13:59:03;7.89;37.26
20862;DHT22;10591;52.532;13.348;2023-03-01T14:01:36;7.95;37.56
20862;DHT22;10591;52.532;13.348;2023-03-01T14:04:21;8.08;37.54
20862;DHT22;10591;52.532;13.348;2023-03-01T14:09:44;8.17;37.16
20862;DHT22;10591;52.532;13.348;2023-03-01T14:12:30;8.32;37.50
20862;DHT22;10591;52.532;13.348;2023-03-01T14:15:22;8.32;38.02
20862;DHT22;10591;52.532;13.348;2023-03-01T14:20:45;8.06;38.26
20862;DHT22;10591;52.532;13.348;2023-03-01T14:23:22;8.38;38.13
20862;DHT22;10591;52.532;13.348;2023-03-01T14:25:57;8.98;37.28
20862;DHT22;10591;52.532;13.348;2023-03-01T14:28:30;8.98;38.03
20862;DHT22;10591;52.532;13.348;2023-03-01T14:33:55;8.53;39.12
20862;DHT22;10591;52.532;13.348;2023-03-01T14:36:29;8.22;39.83
20862;DHT22;10591;52.532;13.348;2023-03-01T14:39:00;8.36;40.33
20862;DHT22;10591;52.532;13.348;2023-03-01T14:41:34;8.82;39.11
20862;DHT22;10591;52.532;13.348;2023-03-01T14:44:07;8.88;39.67
20862;DHT22;10591;52.532;13.348;2023-03-01T14:46:41;8.70;40.56
20862;DHT22;10591;52.532;13.348;2023-03-01T14:49:29;8.39;41.26
20862;DHT22;10591;52.532;13.348;2023-03-01T14:54:40;8.28;41.32
20862;DHT22;10591;52.532;13.348;2023-03-01T14:57:18;8.19;41.56
20862;DHT22;10591;52.532;13.348;2023-03-01T14:59:57;8.20;41.91
20862;DHT22;10591;52.532;13.348;2023-03-01T15:02:30;7.90;41.97
20862;DHT22;10591;52.532;13.348;2023-03-01T15:05:04;7.94;41.85
20862;DHT22;10591;52.532;13.348;2023-03-01T15:07:39;7.88;42.16
20862;DHT22;10591;52.532;13.348;2023-03-01T15:10:20;7.85;42.54
20862;DHT22;10591;52.532;13.348;2023-03-01T15:12:52;7.99;42.23
20862;DHT22;10591;52.532;13.348;2023-03-01T15:15:31;7.96;42.36
20862;DHT22;10591;52.532;13.348;2023-03-01T15:18:12;7.88;42.42
20862;DHT22;10591;52.532;13.348;2023-03-01T15:20:35;7.88;42.38
20862;DHT22;10591;52.532;13.348;2023-03-01T15:23:12;7.84;42.63
20862;DHT22;10591;52.532;13.348;2023-03-01T15:25:43;7.86;42.19
20862;DHT22;10591;52.532;13.348;2023-03-01T15:28:18;7.64;42.51
20862;DHT22;10591;52.532;13.348;2023-03-01T15:30:52;7.62;42.64
20862;DHT22;10591;52.532;13.348;2023-03-01T15:35:59;7.62;43.40
20862;DHT22;10591;52.532;13.348;2023-03-01T15:38:51;7.62;43.59
20862;DHT22;10591;52.532;13.348;2023-03-01T15:41:29;7.54;43.49
20862;DHT22;10591;52.532;13.348;2023-03-01T15:44:15;7.37;43.31
20862;DHT22;10591;52.532;13.348;2023-03-01T15:46:36;7.41;43.62
20862;DHT22;10591;52.532;13.348;2023-03-01T15:49:32;7.44;43.98
20862;DHT22;10591;52.532;13.348;2023-03-01T15:51:59;7.23;44.49
20862;DHT22;10591;52.532;13.348;2023-03-01T15:54:30;7.28;44.46
20862;DHT22;10591;52.532;13.348;2023-03-01T15:57:00;7.36;44.53
20862;DHT22;10591;52.532;13.348;2023-03-01T15:59:31;7.15;44.88
20862;DHT22;10591;52.532;13.348;2023-03-01T16:02:07;7.23;44.23
20862;DHT22;10591;52.532;13.348;2023-03-01T16:04:34;7.15;44.60
20862;DHT22;10591;52.532;13.348;2023-03-01T16:07:05;7.17;44.92
20862;DHT22;10591;52.532;13.348;2023-03-01T16:09:35;6.97;45.61
20862;DHT22;10591;52.532;13.348;2023-03-01T16:12:08;6.83;46.12
20862;DHT22;10591;52.532;13.348;2023-03-01T16:14:38;7.05;45.77
20862;DHT22;10591;52.532;13.348;2023-03-01T16:17:09;7.04;45.59
20862;DHT22;10591;52.532;13.348;2023-03-01T16:19:39;6.92;46.38
20862;DHT22;10591;52.532;13.348;2023-03-01T16:22:11;6.85;46.43
20862;DHT22;10591;52.532;13.348;2023-03-01T16:24:41;6.89;46.50
20862;DHT22;10591;52.532;13.348;2023-03-01T16:27:12;6.61;47.26
20862;DHT22;10591;52.532;13.348;2023-03-01T16:29:46;6.65;47.70
20862;DHT22;10591;52.532;13.348;2023-03-01T16:32:16;6.60;47.72
20862;DHT22;10591;52.532;13.348;2023-03-01T16:34:47;6.48;48.44
20862;DHT22;10591;52.532;13.348;2023-03-01T16:37:18;6.59;48.92
20862;DHT22;10591;52.532;13.348;2023-03-01T16:39:50;6.46;49.68
20862;DHT22;10591;52.532;13.348;2023-03-01T16:42:22;6.24;50.41
20862;DHT22;10591;52.532;13.348;2023-03-01T16:44:56;6.22;50.83
20862;DHT22;10591;52.532;13.348;2023-03-01T16:47:28;6.34;50.88
20862;DHT22;10591;52.532;13.348;2023-03-01T16:49:58;6.23;51.74
20862;DHT22;10591;52.532;13.348;2023-03-01T16:52:29;6.16;51.03
20862;DHT22;10591;52.532;13.348;2023-03-01T16:55:00;5.99;51.31
20862;DHT22;10591;52.532;13.348;2023-03-01T16:57:36;5.87;51.06
20862;DHT22;10591;52.532;13.348;2023-03-01T17:00:10;5.89;51.15
20862;DHT22;10591;52.532;13.348;2023-03-01T17:02:44;5.90;51.12
20862;DHT22;10591;52.532;13.348;2023-03-01T17:05:16;5.78;51.43
20862;DHT22;10591;52.532;13.348;2023-03-01T17:07:46;5.62;52.16
20862;DHT22;10591;52.532;13.348;2023-03-01T17:10:17;5.66;52.43
20862;DHT22;10591;52.532;13.348;2023-03-01T17:12:49;5.65;52.25
20862;DHT22;10591;52.532;13.348;2023-03-01T17:15:20;5.80;51.82
20862;DHT22;10591;52.532;13.348;2023-03-01T17:17:50;5.80;52.24
20862;DHT22;10591;52.532;13.348;2023-03-01T17:20:21;5.82;52.13
20862;DHT22;10591;52.532;13.348;2023-03-01T17:22:51;5.72;52.70
20862;DHT22;10591;52.532;13.348;2023-03-01T17:25:22;5.78;53.31
20862;DHT22;10591;52.532;13.348;2023-03-01T17:27:54;5.80;53.61
20862;DHT22;10591;52.532;13.348;2023-03-01T17:30:26;5.70;54.56
20862;DHT22;10591;52.532;13.348;2023-03-01T17:32:58;5.34;55.35